SBSM/RIA METAR and TAF weather

Enter ICAO airport designator
Station Type Date Time Source
SBSM METAR 2021/04/14 19:00 UTC NOAA

SBSM 141900Z 10007KT 9999 VCSH SCT040 BKN100 27/18 Q1015


Station Type Date Time Source
SBSM Decoded METAR 2021/04/14 19:00 UTC NOAA

Santa Maria Aero-Porto , Brazil (SBSM) 29-43S 053-42W
Apr 14, 2021 - 03:00 PM EDT / 2021.04.14 1900 UTC
Wind: from the E (100 degrees) at 8 MPH (7 KT):0
Visibility: greater than 7 mile(s):0
Sky conditions: mostly cloudy
Weather: showers in the vicinity
Temperature: 80 F (27 C)
Dew Point: 64 F (18 C)
Relative Humidity: 57%
Pressure (altimeter): 29.97 in. Hg (1015 hPa)
ob: SBSM 141900Z 10007KT 9999 VCSH SCT040 BKN100 27/18 Q1015
cycle: 19

Station Type Date Time Source
SBSM TAF 2021/04/14 18:27 UTC NOAA

TAF SBSM 141500Z 1418/1506 08005KT CAVOK TX27/1418Z TN17/1506Z
RMK PED

Example: see airport list